^^
Grace C. Lehan Memorial Weather Station Historical Data
Daily Summary for September 14, 2021 Units:  Metric    English   Both
Daily Weekly Monthly Yearly
  High: Low: Average:
Temperature: 18.1 °C 16.3 °C 17.3 °C
Dew Point: 16.3 °C 14.3 °C 15.4 °C
Humidity: 95% 81% 88%
Wind Speed: 1.1km/h 0km/h 0km/h
Wind Gust: 6.4km/h - -
Wind- - SSW
Pressure: 1012.4 hPa 1009.7 hPa -
Precipitation: 16.51 mm    
 
 
Tabular Data for September 14, 2021
Time Temperature Dew Point Pressure Wind Wind Speed Wind Gust Humidity Rainfall Rate (Hourly) solar
00:00 18.1 °C 14.8 °C 1011.7 hPa Calm     81% 0 mm 0 W/m2
00:09 18.1 °C 14.9 °C 1011.7 hPa Calm     82% 0 mm 0 W/m2
00:14 18 °C 14.9 °C 1011.4 hPa Calm     82% 0 mm 0 W/m2
00:19 17.9 °C 14.8 °C 1011.4 hPa Calm     82% 0 mm 0 W/m2
00:24 17.9 °C 14.8 °C 1011.4 hPa Calm     82% 0 mm 0 W/m2
00:29 17.9 °C 14.8 °C 1011.4 hPa Calm     82% 0 mm 0 W/m2
00:34 17.9 °C 14.8 °C 1011.1 hPa Calm     82% 0 mm 0 W/m2
00:39 17.9 °C 14.8 °C 1011.1 hPa Calm     82% 0 mm 0 W/m2
00:44 17.8 °C 14.8 °C 1011.1 hPa Calm     82.4% 0 mm 0 W/m2
00:49 17.8 °C 14.7 °C 1011.1 hPa Calm     82% 0 mm 0 W/m2
00:54 17.8 °C 14.7 °C 1011.1 hPa Calm     82% 0 mm 0 W/m2
00:59 17.7 °C 14.7 °C 1011.1 hPa Calm     82.4% 0 mm 0 W/m2
01:04 17.7 °C 14.8 °C 1010.7 hPa Calm     83% 0 mm 0 W/m2
01:09 17.7 °C 14.7 °C 1010.7 hPa Calm     82.7% 0 mm 0 W/m2
01:14 17.7 °C 14.6 °C 1010.7 hPa Calm     82% 0 mm 0 W/m2
01:19 17.6 °C 14.6 °C 1010.7 hPa Calm     82.1% 0 mm 0 W/m2
01:24 17.6 °C 14.6 °C 1010.7 hPa Calm     82.2% 0 mm 0 W/m2
01:29 17.6 °C 14.6 °C 1010.7 hPa Calm     82.2% 0 mm 0 W/m2
01:34 17.6 °C 14.6 °C 1010.7 hPa Calm     82.5% 0 mm 0 W/m2
01:39 17.6 °C 14.5 °C 1010.7 hPa Calm     82% 0 mm 0 W/m2
01:44 17.7 °C 14.6 °C 1010.7 hPa Calm     82% 0 mm 0 W/m2
01:49 17.7 °C 14.6 °C 1010.7 hPa Calm     82% 0 mm 0 W/m2
01:54 17.7 °C 14.6 °C 1010.7 hPa Calm     82% 0 mm 0 W/m2
01:59 17.7 °C 14.6 °C 1010.7 hPa Calm     82% 0 mm 0 W/m2
02:04 17.7 °C 14.4 °C 1010.7 hPa Calm     81.6% 0 mm 0 W/m2
02:09 17.6 °C 14.3 °C 1010.7 hPa Calm     81.2% 0 mm 0 W/m2
02:14 17.6 °C 14.3 °C 1010.7 hPa Calm     81% 0 mm 0 W/m2
02:19 17.6 °C 14.3 °C 1010.7 hPa Calm     81% 0 mm 0 W/m2
02:24 17.6 °C 14.3 °C 1010.7 hPa Calm     81% 0 mm 0 W/m2
02:29 17.6 °C 14.3 °C 1010.7 hPa Calm     81% 0 mm 0 W/m2
02:34 17.6 °C 14.3 °C 1010.7 hPa Calm     81% 0 mm 0 W/m2
02:39 17.6 °C 14.3 °C 1010.7 hPa Calm     81% 0 mm 0 W/m2
02:44 17.6 °C 14.3 °C 1010.7 hPa Calm     81% 0 mm 0 W/m2
02:49 17.6 °C 14.3 °C 1010.7 hPa Calm     81% 0 mm 0 W/m2
02:54 17.6 °C 14.3 °C 1010.7 hPa Calm     81.3% 0 mm 0 W/m2
02:59 17.6 °C 14.4 °C 1010.7 hPa Calm     82% 0 mm 0 W/m2
03:04 17.5 °C 14.4 °C 1010.7 hPa Calm     82% 0 mm 0 W/m2
03:09 17.4 °C 14.3 °C 1010.7 hPa Calm     82% 0 mm 0 W/m2
03:14 17.4 °C 14.3 °C 1010.7 hPa Calm     82.2% 0 mm 0 W/m2
03:19 17.3 °C 14.4 °C 1010.7 hPa Calm     83% 0 mm 0 W/m2
03:24 17.3 °C 14.4 °C 1010.7 hPa Calm     83.2% 0 mm 0 W/m2
03:29 17.3 °C 14.6 °C 1010.4 hPa Calm     84% 0 mm 0 W/m2
03:34 17.2 °C 14.5 °C 1010.4 hPa Calm     84% 0 mm 0 W/m2
03:39 17.2 °C 14.5 °C 1010.4 hPa Calm     84.1% 0 mm 0 W/m2
03:44 17.2 °C 14.7 °C 1010.4 hPa Calm     85% 0 mm 0 W/m2
03:49 17.2 °C 14.7 °C 1010.4 hPa Calm     85% 0 mm 0 W/m2
03:54 17.3 °C 14.7 °C 1010.4 hPa Calm     85% 0 mm 0 W/m2
03:59 17.3 °C 14.7 °C 1010.4 hPa Calm     85% 0 mm 0 W/m2
04:09 17.3 °C 14.9 °C 1010.4 hPa Calm     86% 0 mm 0 W/m2
04:14 17.3 °C 14.9 °C 1010.4 hPa Calm     86% 0 mm 0 W/m2
04:19 17.3 °C 14.9 °C 1010.4 hPa Calm   1.6 km/h 86% 0 mm 0 W/m2
04:24 17.3 °C 15.1 °C 1010.4 hPa Calm   1.6 km/h 86.7% 0 mm 0 W/m2
04:29 17.3 °C 15.1 °C 1010.4 hPa Calm   1.6 km/h 87% 0 mm 0 W/m2
04:34 17.3 °C 15.1 °C 1010.4 hPa SW 0.2 km/h 3.2 km/h 87% 0 mm 0 W/m2
04:39 17.3 °C 15.1 °C 1010.4 hPa Calm   3.2 km/h 87% 0 mm 0 W/m2
04:44 17.3 °C 15.2 °C 1010.4 hPa Calm   3.2 km/h 87.5% 0 mm 0 W/m2
04:49 17.3 °C 15.3 °C 1010.4 hPa Calm   3.2 km/h 88% 0 mm 0 W/m2
04:54 17.3 °C 15.3 °C 1010.7 hPa SW 0.5 km/h 4.8 km/h 88% 0 mm 0 W/m2
04:59 17.3 °C 15.3 °C 1010.7 hPa Calm   4.8 km/h 88% 0 mm 0 W/m2
05:04 17.3 °C 15.4 °C 1010.4 hPa Calm   4.8 km/h 88.5% 0 mm 0 W/m2
05:09 17.3 °C 15.4 °C 1010.4 hPa Calm   1.6 km/h 89% 0 mm 0 W/m2
05:14 17.3 °C 15.4 °C 1010.4 hPa Calm   1.6 km/h 89% 0 mm 0 W/m2
05:19 17.3 °C 15.4 °C 1010.4 hPa Calm   1.6 km/h 89% 0 mm 0 W/m2
05:24 17.3 °C 15.4 °C 1010.4 hPa Calm   1.6 km/h 89% 0 mm 0 W/m2
05:29 17.3 °C 15.4 °C 1010.4 hPa Calm   1.6 km/h 89% 0 mm 0 W/m2
05:34 17.3 °C 15.4 °C 1010 hPa Calm   1.6 km/h 89% 0 mm 7 W/m2
05:39 17.3 °C 15.4 °C 1010 hPa Calm     89% 0 mm 11 W/m2
05:44 17.3 °C 15.4 °C 1010 hPa Calm     89% 0 mm 11 W/m2
05:49 17.3 °C 15.4 °C 1010 hPa Calm     89% 0 mm 14 W/m2
05:54 17.3 °C 15.4 °C 1010 hPa Calm     89% 0 mm 18 W/m2
05:59 17.3 °C 15.6 °C 1010.4 hPa Calm   1.6 km/h 89.6% 0 mm 16 W/m2
06:04 17.3 °C 15.6 °C 1010.4 hPa SSW 0.8 km/h 4.8 km/h 89.5% 0 mm 5 W/m2
06:09 17.3 °C 15.5 °C 1010.7 hPa Calm   4.8 km/h 89% 0 mm 9 W/m2
06:14 17.3 °C 15.5 °C 1010.7 hPa SSW 1.1 km/h 6.4 km/h 89% 0 mm 23 W/m2
06:19 17.4 °C 15.6 °C 1010.4 hPa Calm   6.4 km/h 89% 0 mm 32 W/m2
06:24 17.4 °C 15.6 °C 1010.4 hPa SSW 0.2 km/h 6.4 km/h 89% 0 mm 33 W/m2
06:29 17.4 °C 15.6 °C 1010.4 hPa Calm   6.4 km/h 89% 0 mm 32 W/m2
06:34 17.4 °C 15.6 °C 1010 hPa Calm   6.4 km/h 89% 0 mm 40 W/m2
06:39 17.5 °C 15.7 °C 1010 hPa SSW 0.5 km/h 6.4 km/h 89% 0 mm 40 W/m2
06:44 17.5 °C 15.7 °C 1009.7 hPa Calm   6.4 km/h 89% 0 mm 37 W/m2
06:49 17.6 °C 15.7 °C 1010 hPa SSW 0.2 km/h 6.4 km/h 89% 0 mm 30 W/m2
06:54 17.6 °C 15.7 °C 1010 hPa SW 0.2 km/h 6.4 km/h 88.5% 0 mm 14 W/m2
06:59 17.6 °C 15.6 °C 1010.4 hPa Calm   6.4 km/h 88% 0 mm 14 W/m2
07:04 17.6 °C 15.6 °C 1010.4 hPa SW 0.2 km/h 6.4 km/h 88% 0 mm 12 W/m2
07:09 17.6 °C 15.6 °C 1010.4 hPa SSW 0.2 km/h 3.2 km/h 88% 0 mm 11 W/m2
07:14 17.7 °C 15.7 °C 1010.7 hPa Calm   3.2 km/h 88% 0 mm 5 W/m2
07:19 17.7 °C 15.7 °C 1010.7 hPa SSW 0.5 km/h 6.4 km/h 88% 0 mm 0 W/m2
07:24 17.7 °C 15.7 °C 1011.1 hPa Calm   6.4 km/h 88% 0 mm 0 W/m2
07:29 17.8 °C 15.9 °C 1011.7 hPa Calm   6.4 km/h 88.8% 0 mm 0 W/m2
07:34 17.8 °C 15.9 °C 1011.7 hPa Calm   6.4 km/h 89% 0 mm 0 W/m2
07:39 17.8 °C 16 °C 1011.7 hPa Calm     89% 0 mm 0 W/m2
07:44 17.8 °C 16 °C 1011.7 hPa Calm     89% 0 mm 0 W/m2
07:49 17.8 °C 16.1 °C 1011.7 hPa Calm     89.4% 0.25 mm 0 W/m2
07:54 17.8 °C 16.2 °C 1011.7 hPa Calm   4.8 km/h 90% 0.51 mm 0 W/m2
08:09 17.8 °C 16.3 °C 1012.4 hPa Calm     90.9% 2.54 mm 0 W/m2
08:14 17.7 °C 16.2 °C 1012.1 hPa Calm     91% 3.56 mm 0 W/m2
08:19 17.6 °C 16.1 °C 1011.1 hPa WSW 0.3 km/h 3.2 km/h 91% 5.84 mm 5 W/m2
08:24 17.4 °C 15.9 °C 1011.4 hPa Calm   3.2 km/h 91% 6.86 mm 5 W/m2
08:29 17.3 °C 16.1 °C 1011.4 hPa Calm   3.2 km/h 92% 7.62 mm 7 W/m2
08:34 17.3 °C 15.9 °C 1011.4 hPa Calm   3.2 km/h 92% 7.62 mm 5 W/m2
08:39 17.2 °C 16.1 °C 1011.4 hPa Calm     92.6% 7.62 mm 5 W/m2
08:44 17.3 °C 16.1 °C 1011.4 hPa Calm     93% 7.62 mm 9 W/m2
08:49 17.2 °C 16.1 °C 1011.4 hPa Calm     93% 7.62 mm 14 W/m2
08:54 17.2 °C 16 °C 1011.4 hPa Calm     93% 8.13 mm 18 W/m2
08:59 17.1 °C 15.9 °C 1011.4 hPa Calm     93% 8.13 mm 30 W/m2
09:04 17.1 °C 15.9 °C 1011.4 hPa Calm     93% 8.13 mm 46 W/m2
09:09 17.1 °C 16 °C 1011.4 hPa Calm     93.6% 0.76 mm 42 W/m2
09:14 17.1 °C 16.1 °C 1011.4 hPa Calm     94% 3.56 mm 44 W/m2
09:19 17.1 °C 16.2 °C 1011.4 hPa Calm     94% 3.56 mm 44 W/m2
09:24 17.2 °C 16.2 °C 1011.4 hPa Calm     94% 3.56 mm 35 W/m2
09:29 17.2 °C 16.3 °C 1011.4 hPa Calm     94% 4.32 mm 32 W/m2
09:34 17.3 °C 16.3 °C 1011.4 hPa Calm     94% 4.32 mm 51 W/m2
09:39 17.3 °C 16.3 °C 1011.1 hPa Calm     94% 4.32 mm 54 W/m2
09:44 17.2 °C 16.3 °C 1011.1 hPa Calm     94% 4.32 mm 44 W/m2
09:49 17.2 °C 16.3 °C 1011.1 hPa Calm     94% 4.32 mm 44 W/m2
09:54 17.2 °C 16.2 °C 1011.1 hPa Calm     94% 4.57 mm 77 W/m2
09:59 17.1 °C 16.1 °C 1011.4 hPa Calm     94% 4.57 mm 97 W/m2
10:04 17.1 °C 16.1 °C 1011.1 hPa Calm     94% 4.57 mm 91 W/m2
10:09 17 °C 16 °C 1011.1 hPa Calm     94% 4.32 mm 146 W/m2
10:14 16.9 °C 16 °C 1011.1 hPa Calm     94% 4.32 mm 134 W/m2
10:19 16.9 °C 16 °C 1011.4 hPa Calm     94% 4.32 mm 62 W/m2
10:24 16.9 °C 16 °C 1011.4 hPa Calm     94% 4.83 mm 69 W/m2
10:29 16.9 °C 16 °C 1011.4 hPa Calm     94% 5.08 mm 56 W/m2
10:34 16.9 °C 16.1 °C 1011.4 hPa Calm     94.4% 5.08 mm 51 W/m2
10:39 17.1 °C 16.2 °C 1011.4 hPa Calm     95% 1.52 mm 63 W/m2
10:44 17.1 °C 16.3 °C 1011.4 hPa Calm     95% 1.52 mm 47 W/m2
10:49 17.1 °C 16.2 °C 1011.4 hPa Calm     94.5% 1.52 mm 56 W/m2
10:54 17 °C 16.1 °C 1011.1 hPa Calm     94.1% 2.03 mm 63 W/m2
10:59 17.1 °C 16.2 °C 1011.4 hPa Calm     95% 2.03 mm 62 W/m2
11:04 17.1 °C 16.2 °C 1011.4 hPa Calm     95% 2.03 mm 35 W/m2
11:09 16.9 °C 16.1 °C 1011.4 hPa Calm     94.5% 2.29 mm 25 W/m2
11:14 16.8 °C 15.8 °C 1011.4 hPa Calm     94% 3.56 mm 32 W/m2
11:19 16.7 °C 15.7 °C 1011.1 hPa Calm     94% 4.06 mm 44 W/m2
11:24 16.6 °C 15.6 °C 1011.4 hPa Calm     94% 4.06 mm 44 W/m2
11:29 16.5 °C 15.6 °C 1011.4 hPa Calm     94% 4.06 mm 102 W/m2
11:34 16.6 °C 15.6 °C 1011.4 hPa Calm     94% 4.06 mm 102 W/m2
11:39 16.6 °C 15.7 °C 1011.4 hPa South 0.5 km/h 6.4 km/h 94.4% 3.05 mm 163 W/m2
11:44 16.7 °C 15.9 °C 1011.4 hPa Calm   6.4 km/h 95% 3.05 mm 246 W/m2
11:49 16.8 °C 16 °C 1011.1 hPa SSW 0.3 km/h 6.4 km/h 95% 3.05 mm 295 W/m2
11:54 17 °C 16.2 °C 1011.1 hPa SE 0.5 km/h 6.4 km/h 95% 3.05 mm 237 W/m2
11:59 17 °C 16.2 °C 1011.1 hPa Calm   6.4 km/h 95% 3.05 mm 109 W/m2
12:00 16.9 °C 16.1 °C 1011.1 hPa Calm   6.4 km/h 95% 3.05 mm 93 W/m2
12:09 16.8 °C 15.8 °C 1011.1 hPa SSW 0.6 km/h 6.4 km/h 94% 2.29 mm 290 W/m2
12:14 16.7 °C 15.8 °C 1011.1 hPa SSW 0.6 km/h 6.4 km/h 94% 2.29 mm 118 W/m2
12:19 16.6 °C 15.6 °C 1011.4 hPa SSW 0.2 km/h 6.4 km/h 93.8% 2.29 mm 79 W/m2
12:24 16.4 °C 15.3 °C 1011.4 hPa Calm   6.4 km/h 93% 2.29 mm 32 W/m2
12:29 16.4 °C 15.3 °C 1011.4 hPa Calm   6.4 km/h 93% 2.54 mm 49 W/m2
12:34 16.3 °C 15.2 °C 1011.1 hPa Calm   6.4 km/h 93% 2.54 mm 62 W/m2
12:38 16.3 °C 15.2 °C 1011.1 hPa Calm     93% 0.25 mm 47 W/m2
Hartford County Weather
Compliments of Weather Underground - 2 mb